createdAt,value
2022-09-14T00:02:04.786Z,20.50
2022-09-14T00:05:26.916Z,20.60
2022-09-14T00:08:54.163Z,20.60
2022-09-14T00:12:16.581Z,20.50
2022-09-14T00:15:40.327Z,20.50
2022-09-14T00:19:06.354Z,20.50
2022-09-14T00:22:28.829Z,20.40
2022-09-14T00:25:51.676Z,20.40
2022-09-14T00:29:13.712Z,20.40
2022-09-14T00:32:35.649Z,20.50
2022-09-14T00:36:13.877Z,20.40
2022-09-14T00:39:36.772Z,20.40
2022-09-14T00:42:58.774Z,20.30
2022-09-14T00:46:20.999Z,20.30
2022-09-14T00:49:44.217Z,20.20
2022-09-14T00:53:06.533Z,20.10
2022-09-14T00:56:28.769Z,20.00
2022-09-14T00:59:52.835Z,19.90
2022-09-14T01:03:15.092Z,19.90
2022-09-14T01:06:37.027Z,20.00
2022-09-14T01:10:13.706Z,19.90
2022-09-14T01:13:44.677Z,19.80
2022-09-14T01:17:18.148Z,19.80
2022-09-14T01:21:12.387Z,19.70
2022-09-14T01:24:53.122Z,19.70
2022-09-14T01:28:28.412Z,19.60
2022-09-14T01:32:02.627Z,19.60
2022-09-14T01:35:38.285Z,19.50
2022-09-14T01:39:00.922Z,19.50
2022-09-14T01:42:25.271Z,19.50
2022-09-14T01:45:51.869Z,19.50
2022-09-14T01:49:32.266Z,19.50
2022-09-14T01:53:09.621Z,19.40
2022-09-14T01:56:38.984Z,19.40
2022-09-14T02:00:07.287Z,19.40
2022-09-14T02:03:37.342Z,19.30
2022-09-14T02:06:59.415Z,19.30
2022-09-14T02:10:22.840Z,19.30
2022-09-14T02:13:44.905Z,19.30
2022-09-14T02:17:08.375Z,19.30
2022-09-14T02:20:48.139Z,19.30
2022-09-14T02:24:12.424Z,19.30
2022-09-14T02:27:34.410Z,19.20
2022-09-14T02:31:31.576Z,19.20
2022-09-14T02:35:12.259Z,19.10
2022-09-14T02:38:45.753Z,19.10
2022-09-14T02:42:13.831Z,19.10
2022-09-14T02:45:54.573Z,19.10
2022-09-14T02:49:51.382Z,19.00
2022-09-14T02:53:55.897Z,19.00
2022-09-14T02:57:18.144Z,18.90
2022-09-14T03:00:43.828Z,18.90
2022-09-14T03:04:05.839Z,18.80
2022-09-14T03:07:27.825Z,18.80
2022-09-14T03:10:49.897Z,18.80
2022-09-14T03:14:12.273Z,18.70
2022-09-14T03:17:34.294Z,18.70
2022-09-14T03:21:05.169Z,18.70
2022-09-14T03:24:27.206Z,18.70
2022-09-14T03:27:59.037Z,18.70
2022-09-14T03:31:21.543Z,18.60
2022-09-14T03:34:43.639Z,18.50
2022-09-14T03:38:05.601Z,18.50
2022-09-14T03:41:28.588Z,18.40
2022-09-14T03:44:50.532Z,18.50
2022-09-14T03:48:15.438Z,18.50
2022-09-14T03:51:37.565Z,18.50
2022-09-14T03:54:59.522Z,18.40
2022-09-14T03:58:22.939Z,18.30
2022-09-14T04:01:45.065Z,18.30
2022-09-14T04:05:07.874Z,18.20
2022-09-14T04:08:29.872Z,18.20
2022-09-14T04:11:51.861Z,18.10
2022-09-14T04:15:13.835Z,18.10
2022-09-14T04:18:36.059Z,18.10
2022-09-14T04:21:58.139Z,18.00
2022-09-14T04:25:23.877Z,18.00
2022-09-14T04:28:47.657Z,18.10
2022-09-14T04:32:11.203Z,18.30
2022-09-14T04:35:38.310Z,18.30
2022-09-14T04:39:02.516Z,18.30
2022-09-14T04:42:24.619Z,18.50
2022-09-14T04:45:46.671Z,18.60
2022-09-14T04:49:09.457Z,18.50
2022-09-14T04:52:32.081Z,18.60
2022-09-14T04:55:58.745Z,18.70
2022-09-14T04:59:20.743Z,18.70
2022-09-14T05:02:43.089Z,18.70
2022-09-14T05:06:16.872Z,18.80
2022-09-14T05:09:38.819Z,18.90
2022-09-14T05:13:00.787Z,19.00
2022-09-14T05:16:29.312Z,18.90
2022-09-14T05:19:51.961Z,19.00
2022-09-14T05:23:14.036Z,18.90
2022-09-14T05:26:35.980Z,18.90
2022-09-14T05:29:58.722Z,18.80
2022-09-14T05:33:21.829Z,18.90
2022-09-14T05:36:44.089Z,18.90
2022-09-14T05:40:07.732Z,19.00
2022-09-14T05:43:31.089Z,19.20
2022-09-14T05:46:54.261Z,19.40
2022-09-14T05:50:17.358Z,19.60
2022-09-14T05:53:40.903Z,19.60
2022-09-14T05:57:05.109Z,19.80
2022-09-14T06:00:27.780Z,19.90
2022-09-14T06:03:53.482Z,20.10
2022-09-14T06:07:18.685Z,20.30
2022-09-14T06:10:41.150Z,20.60
2022-09-14T06:14:03.696Z,20.80
2022-09-14T06:17:25.749Z,21.20
2022-09-14T06:20:52.163Z,22.00
2022-09-14T06:24:14.180Z,22.70
2022-09-14T06:27:36.202Z,23.00
2022-09-14T06:30:58.526Z,23.30
2022-09-14T06:34:20.525Z,23.60
2022-09-14T06:37:42.434Z,24.30
2022-09-14T06:41:07.008Z,25.70
2022-09-14T06:44:28.969Z,27.50
2022-09-14T06:47:51.170Z,28.40
2022-09-14T06:51:22.177Z,28.60
2022-09-14T06:54:44.134Z,27.50
2022-09-14T06:58:07.737Z,26.70
2022-09-14T07:01:30.085Z,26.60
2022-09-14T07:04:52.460Z,27.40
2022-09-14T07:08:14.408Z,28.40
2022-09-14T07:11:37.175Z,29.40
2022-09-14T07:14:59.120Z,30.20
2022-09-14T07:18:22.314Z,30.40
2022-09-14T07:21:44.394Z,29.90
2022-09-14T07:25:07.077Z,27.80
2022-09-14T07:28:29.281Z,27.00
2022-09-14T07:31:53.985Z,26.50
2022-09-14T07:35:16.003Z,25.90
2022-09-14T07:38:53.847Z,25.80
2022-09-14T07:42:15.959Z,26.00
2022-09-14T07:45:39.697Z,26.00
2022-09-14T07:49:03.147Z,26.20
2022-09-14T07:52:25.210Z,26.40
2022-09-14T07:55:47.368Z,26.80
2022-09-14T08:02:58.056Z,27.40
2022-09-14T08:06:22.569Z,27.80
2022-09-14T08:09:45.848Z,28.20
2022-09-14T08:13:09.116Z,28.20
2022-09-14T08:16:32.793Z,29.00
2022-09-14T08:19:55.733Z,28.80
2022-09-14T08:23:17.663Z,28.80
2022-09-14T08:26:40.860Z,28.60
2022-09-14T08:30:03.504Z,28.40
2022-09-14T08:33:27.038Z,28.70
2022-09-14T08:36:51.140Z,29.60
2022-09-14T08:40:14.807Z,29.30
2022-09-14T08:43:40.232Z,29.90
2022-09-14T08:47:09.205Z,30.40
2022-09-14T08:50:34.741Z,30.40
2022-09-14T08:54:01.879Z,30.40
2022-09-14T08:57:52.045Z,30.30
2022-09-14T09:01:26.266Z,30.20
2022-09-14T09:05:26.188Z,30.10
2022-09-14T09:09:14.129Z,30.20
2022-09-14T09:12:50.945Z,29.90
2022-09-14T09:16:18.659Z,29.70
2022-09-14T09:20:07.216Z,29.40
2022-09-14T09:23:32.176Z,28.60
2022-09-14T09:26:54.576Z,28.20
2022-09-14T09:30:17.264Z,27.90
2022-09-14T09:33:39.496Z,27.40
2022-09-14T09:37:17.525Z,26.90
2022-09-14T09:40:45.022Z,26.40
2022-09-14T09:44:11.896Z,26.00
2022-09-14T09:47:41.148Z,26.30
2022-09-14T09:51:24.355Z,27.50
2022-09-14T09:54:54.297Z,28.70
2022-09-14T09:58:33.465Z,30.30
2022-09-14T10:01:57.715Z,30.90
2022-09-14T10:05:28.959Z,31.20
2022-09-14T10:08:53.890Z,31.20
2022-09-14T10:12:17.034Z,31.20
2022-09-14T10:15:40.921Z,32.30
2022-09-14T10:19:03.618Z,33.30
2022-09-14T10:22:35.097Z,33.70
2022-09-14T10:26:19.134Z,33.40
2022-09-14T10:29:46.506Z,33.70
2022-09-14T10:33:18.994Z,33.70
2022-09-14T10:36:51.320Z,33.80
2022-09-14T10:40:20.395Z,33.80
2022-09-14T10:44:01.263Z,33.40
2022-09-14T10:48:06.375Z,32.40
2022-09-14T10:51:58.134Z,31.20
2022-09-14T10:56:01.562Z,30.60
2022-09-14T10:59:47.487Z,31.10
2022-09-14T11:03:46.118Z,31.40
2022-09-14T11:07:30.980Z,31.40
2022-09-14T11:11:24.019Z,31.10
2022-09-14T11:15:17.988Z,31.20
2022-09-14T11:18:53.992Z,31.30
2022-09-14T11:22:34.396Z,31.40
2022-09-14T11:26:02.687Z,31.60
2022-09-14T11:29:46.689Z,31.70
2022-09-14T11:33:20.420Z,31.20
2022-09-14T11:36:51.111Z,31.60
2022-09-14T11:40:35.068Z,31.70
2022-09-14T11:44:03.965Z,31.90
2022-09-14T11:47:29.232Z,32.20
2022-09-14T11:51:23.024Z,32.10
2022-09-14T11:54:47.092Z,31.90
2022-09-14T11:58:24.152Z,31.70
2022-09-14T12:01:46.220Z,31.20
2022-09-14T12:05:08.313Z,30.80
2022-09-14T12:08:33.152Z,30.50
2022-09-14T12:11:58.637Z,30.30
2022-09-14T12:15:26.694Z,30.60
2022-09-14T12:18:56.578Z,31.30
2022-09-14T12:22:38.687Z,32.00
2022-09-14T12:26:06.735Z,31.50
2022-09-14T12:29:34.419Z,31.10
2022-09-14T12:32:57.047Z,30.90
2022-09-14T12:36:27.357Z,30.60
2022-09-14T12:40:24.412Z,30.20
2022-09-14T12:43:49.548Z,30.00
2022-09-14T12:47:28.683Z,30.30
2022-09-14T12:50:53.016Z,30.40
2022-09-14T12:54:49.209Z,30.70
2022-09-14T12:58:41.934Z,31.10
2022-09-14T13:02:23.014Z,31.90
2022-09-14T13:05:46.026Z,32.20
2022-09-14T13:09:21.187Z,32.20
2022-09-14T13:12:48.980Z,32.00
2022-09-14T13:16:17.731Z,31.40
2022-09-14T13:19:39.952Z,30.80
2022-09-14T13:23:03.333Z,31.00
2022-09-14T13:26:29.956Z,30.90
2022-09-14T13:30:02.817Z,30.80
2022-09-14T13:33:26.503Z,31.10
2022-09-14T13:36:49.837Z,31.30
2022-09-14T13:40:17.162Z,31.20
2022-09-14T13:43:41.966Z,31.10
2022-09-14T13:47:06.878Z,30.90
2022-09-14T13:50:30.113Z,31.00
2022-09-14T13:53:58.025Z,31.20
2022-09-14T13:57:23.296Z,31.40
2022-09-14T14:01:02.331Z,31.70
2022-09-14T14:04:37.911Z,31.50
2022-09-14T14:08:02.352Z,31.30
2022-09-14T14:11:45.899Z,30.80
2022-09-14T14:15:28.967Z,30.60
2022-09-14T14:18:56.550Z,30.40
2022-09-14T14:22:31.766Z,30.10
2022-09-14T14:26:06.029Z,30.00
2022-09-14T14:29:28.046Z,29.80
2022-09-14T14:32:55.207Z,29.70
2022-09-14T14:36:19.993Z,29.60
2022-09-14T14:39:44.386Z,29.40
2022-09-14T14:43:18.712Z,29.10
2022-09-14T14:46:42.717Z,29.00
2022-09-14T14:50:13.343Z,28.80
2022-09-14T14:53:35.828Z,28.70
2022-09-14T14:56:58.464Z,28.50
2022-09-14T15:00:24.998Z,28.40
2022-09-14T15:03:48.010Z,28.20
2022-09-14T15:07:10.282Z,28.00
2022-09-14T15:10:32.594Z,27.90
2022-09-14T15:13:55.441Z,27.70
2022-09-14T15:17:19.180Z,27.50
2022-09-14T15:20:42.224Z,27.30
2022-09-14T15:24:05.262Z,27.30
2022-09-14T15:27:27.546Z,27.40
2022-09-14T15:30:50.320Z,27.40
2022-09-14T15:34:12.874Z,27.20
2022-09-14T15:37:35.372Z,27.10
2022-09-14T15:40:57.676Z,27.00
2022-09-14T15:44:20.254Z,26.70
2022-09-14T15:47:44.740Z,26.50
2022-09-14T15:51:12.036Z,26.30
2022-09-14T15:54:37.428Z,26.00
2022-09-14T15:58:00.323Z,25.60
2022-09-14T16:01:23.459Z,25.10
2022-09-14T16:04:47.175Z,24.50
2022-09-14T16:08:09.302Z,24.10
2022-09-14T16:11:32.233Z,24.00
2022-09-14T16:14:55.629Z,24.10
2022-09-14T16:18:18.284Z,24.30
2022-09-14T16:21:41.963Z,24.30
2022-09-14T16:25:04.781Z,24.10
2022-09-14T16:28:28.370Z,24.10
2022-09-14T16:31:52.286Z,24.20
2022-09-14T16:35:16.767Z,24.20
2022-09-14T16:38:41.387Z,24.10
2022-09-14T16:42:04.211Z,24.00
2022-09-14T16:45:27.294Z,24.00
2022-09-14T16:48:50.823Z,24.00
2022-09-14T16:52:12.878Z,24.00
2022-09-14T16:55:35.323Z,23.90
2022-09-14T16:58:59.136Z,23.90
2022-09-14T17:02:21.353Z,23.80
2022-09-14T17:05:43.418Z,23.80
2022-09-14T17:09:14.756Z,23.70
2022-09-14T17:12:36.741Z,23.60
2022-09-14T17:16:07.146Z,23.60
2022-09-14T17:19:29.349Z,23.50
2022-09-14T17:22:51.653Z,23.30
2022-09-14T17:26:15.821Z,23.30
2022-09-14T17:29:40.334Z,23.20
2022-09-14T17:33:02.553Z,23.10
2022-09-14T17:36:25.355Z,23.00
2022-09-14T17:39:48.058Z,23.00
2022-09-14T17:43:11.559Z,22.80
2022-09-14T17:46:35.892Z,22.60
2022-09-14T17:50:00.565Z,22.60
2022-09-14T17:53:23.430Z,22.50
2022-09-14T17:56:46.135Z,22.50
2022-09-14T18:00:09.512Z,22.50
2022-09-14T18:03:32.082Z,22.50
2022-09-14T18:06:54.523Z,22.60
2022-09-14T18:10:17.798Z,22.60
2022-09-14T18:13:44.863Z,22.60
2022-09-14T18:17:07.104Z,22.60
2022-09-14T18:20:29.122Z,22.50
2022-09-14T18:23:52.694Z,22.50
2022-09-14T18:27:14.933Z,22.30
2022-09-14T18:30:41.678Z,22.30
2022-09-14T18:34:05.702Z,22.20
2022-09-14T18:37:27.976Z,22.10
2022-09-14T18:40:50.406Z,22.20
2022-09-14T18:44:15.301Z,22.40
2022-09-14T18:47:37.328Z,22.40
2022-09-14T18:51:04.585Z,22.40
2022-09-14T18:54:27.697Z,22.50
2022-09-14T18:57:51.235Z,22.40
2022-09-14T19:01:15.264Z,22.40
2022-09-14T19:04:39.267Z,22.40
2022-09-14T19:08:02.268Z,22.20
2022-09-14T19:11:29.119Z,22.20
2022-09-14T19:14:51.924Z,22.10
2022-09-14T19:18:19.882Z,22.20
2022-09-14T19:21:45.738Z,22.10
2022-09-14T19:25:09.112Z,22.10
2022-09-14T19:28:32.152Z,22.10
2022-09-14T19:31:55.706Z,22.10
2022-09-14T19:35:18.989Z,21.90
2022-09-14T19:38:42.806Z,21.80
2022-09-14T19:42:06.062Z,21.70
2022-09-14T19:45:31.328Z,21.70
2022-09-14T19:48:54.841Z,21.70
2022-09-14T19:52:16.806Z,21.60
2022-09-14T19:55:39.483Z,21.60
2022-09-14T19:59:09.407Z,21.50
2022-09-14T20:02:35.933Z,21.40
2022-09-14T20:06:09.440Z,21.40
2022-09-14T20:09:33.730Z,21.40
2022-09-14T20:12:55.746Z,21.40
2022-09-14T20:16:28.800Z,21.30
2022-09-14T20:19:50.831Z,21.30
2022-09-14T20:23:12.858Z,21.20
2022-09-14T20:26:34.984Z,21.20
2022-09-14T20:29:56.952Z,21.20
2022-09-14T20:33:19.128Z,21.10
2022-09-14T20:36:41.378Z,21.10
2022-09-14T20:40:04.488Z,21.10
2022-09-14T20:43:26.721Z,21.10
2022-09-14T20:46:49.810Z,21.00
2022-09-14T20:50:11.981Z,20.90
2022-09-14T20:53:36.624Z,20.90
2022-09-14T20:57:03.501Z,20.80
2022-09-14T21:00:26.470Z,20.80
2022-09-14T21:03:50.344Z,20.70
2022-09-14T21:07:12.723Z,20.70
2022-09-14T21:10:38.302Z,20.70
2022-09-14T21:14:01.004Z,20.60
2022-09-14T21:17:23.206Z,20.60
2022-09-14T21:20:45.245Z,20.60
2022-09-14T21:24:10.426Z,20.60
2022-09-14T21:27:32.461Z,20.50
2022-09-14T21:31:07.810Z,20.50
2022-09-14T21:34:30.306Z,20.40
2022-09-14T21:37:52.357Z,20.40
2022-09-14T21:41:14.406Z,20.40
2022-09-14T21:44:37.929Z,20.30
2022-09-14T21:47:59.956Z,20.30
2022-09-14T21:51:25.210Z,20.30
2022-09-14T21:54:47.380Z,20.30
2022-09-14T21:58:09.554Z,20.30
2022-09-14T22:01:31.654Z,20.20
2022-09-14T22:04:53.901Z,20.20
2022-09-14T22:08:16.294Z,20.10
2022-09-14T22:11:39.408Z,20.20
2022-09-14T22:15:01.414Z,20.20
2022-09-14T22:18:23.497Z,20.20
2022-09-14T22:21:46.341Z,20.20
2022-09-14T22:25:08.643Z,20.20
2022-09-14T22:28:31.016Z,20.30
2022-09-14T22:31:53.070Z,20.30
2022-09-14T22:35:15.074Z,20.20
2022-09-14T22:38:37.176Z,20.20
2022-09-14T22:41:59.378Z,20.20
2022-09-14T22:45:21.431Z,20.20
2022-09-14T22:48:43.629Z,20.20
2022-09-14T22:52:05.694Z,20.10
2022-09-14T22:55:28.699Z,20.10
2022-09-14T22:58:51.129Z,20.00
2022-09-14T23:02:13.402Z,20.00
2022-09-14T23:05:37.679Z,20.00
2022-09-14T23:09:00.604Z,20.00
2022-09-14T23:12:22.611Z,19.90
2022-09-14T23:15:44.897Z,19.90
2022-09-14T23:19:07.123Z,19.80
2022-09-14T23:22:29.145Z,19.80
2022-09-14T23:25:51.091Z,19.70
2022-09-14T23:29:15.807Z,19.60
2022-09-14T23:32:37.843Z,19.60
2022-09-14T23:36:00.081Z,19.50
2022-09-14T23:39:22.068Z,19.40
2022-09-14T23:42:44.410Z,19.30
2022-09-14T23:46:06.537Z,19.30
2022-09-14T23:49:28.815Z,19.30
2022-09-14T23:52:50.844Z,19.30
2022-09-14T23:56:13.379Z,19.30
2022-09-14T23:59:35.364Z,19.30
